sensor_id;sensor_type;location;lat;lon;timestamp;pressure;altitude;pressure_sealevel;temperature;humidity
65666;BME280;52365;47.464;18.976;2023-07-20T00:00:10;99092.41;;;26.72;48.02
65666;BME280;52365;47.464;18.976;2023-07-20T00:00:34;99081.91;;;26.90;47.58
65666;BME280;52365;47.464;18.976;2023-07-20T00:00:55;99086.16;;;26.71;47.92
65666;BME280;52365;47.464;18.976;2023-07-20T00:01:16;99087.72;;;26.35;49.11
65666;BME280;52365;47.464;18.976;2023-07-20T00:01:37;99082.91;;;26.17;49.54
65666;BME280;52365;47.464;18.976;2023-07-20T00:01:59;99092.16;;;26.11;49.68
65666;BME280;52365;47.464;18.976;2023-07-20T00:02:20;99079.78;;;26.03;49.95
65666;BME280;52365;47.464;18.976;2023-07-20T00:02:41;99080.09;;;25.97;50.06
65666;BME280;52365;47.464;18.976;2023-07-20T00:03:13;99084.28;;;25.98;50.12
65666;BME280;52365;47.464;18.976;2023-07-20T00:03:37;99082.53;;;25.93;50.37
65666;BME280;52365;47.464;18.976;2023-07-20T00:03:58;99084.63;;;26.12;49.81
65666;BME280;52365;47.464;18.976;2023-07-20T00:04:19;99085.38;;;26.32;49.24
65666;BME280;52365;47.464;18.976;2023-07-20T00:04:40;99086.28;;;26.34;49.16
65666;BME280;52365;47.464;18.976;2023-07-20T00:05:01;99084.25;;;26.45;48.91
65666;BME280;52365;47.464;18.976;2023-07-20T00:05:22;99084.84;;;26.53;48.66
65666;BME280;52365;47.464;18.976;2023-07-20T00:05:45;99086.09;;;26.42;48.89
65666;BME280;52365;47.464;18.976;2023-07-20T00:06:07;99087.28;;;26.39;49.13
65666;BME280;52365;47.464;18.976;2023-07-20T00:06:28;99087.56;;;26.33;49.31
65666;BME280;52365;47.464;18.976;2023-07-20T00:06:49;99087.97;;;26.20;49.74
65666;BME280;52365;47.464;18.976;2023-07-20T00:07:10;99085.66;;;26.17;49.88
65666;BME280;52365;47.464;18.976;2023-07-20T00:07:31;99094.59;;;25.98;50.31
65666;BME280;52365;47.464;18.976;2023-07-20T00:07:52;99098.69;;;25.97;50.56
65666;BME280;52365;47.464;18.976;2023-07-20T00:08:13;99094.31;;;25.94;50.50
65666;BME280;52365;47.464;18.976;2023-07-20T00:08:34;99100.56;;;25.94;50.56
65666;BME280;52365;47.464;18.976;2023-07-20T00:08:55;99098.88;;;26.18;50.02
65666;BME280;52365;47.464;18.976;2023-07-20T00:09:17;99096.13;;;26.37;49.44
65666;BME280;52365;47.464;18.976;2023-07-20T00:09:38;99094.09;;;26.28;49.53
65666;BME280;52365;47.464;18.976;2023-07-20T00:09:59;99091.94;;;26.36;49.45
65666;BME280;52365;47.464;18.976;2023-07-20T00:10:19;99092.25;;;26.50;49.12
65666;BME280;52365;47.464;18.976;2023-07-20T00:10:35;99093.84;;;26.63;48.69
65666;BME280;52365;47.464;18.976;2023-07-20T00:10:56;99087.47;;;26.70;48.50
65666;BME280;52365;47.464;18.976;2023-07-20T00:11:17;99090.50;;;26.45;49.11
65666;BME280;52365;47.464;18.976;2023-07-20T00:11:39;99093.06;;;26.24;49.76
65666;BME280;52365;47.464;18.976;2023-07-20T00:12:00;99086.28;;;25.78;51.15
65666;BME280;52365;47.464;18.976;2023-07-20T00:12:21;99091.09;;;25.88;50.96
65666;BME280;52365;47.464;18.976;2023-07-20T00:12:42;99077.50;;;25.72;51.36
65666;BME280;52365;47.464;18.976;2023-07-20T00:13:09;99087.88;;;25.54;51.82
65666;BME280;52365;47.464;18.976;2023-07-20T00:13:30;99084.38;;;25.44;52.08
65666;BME280;52365;47.464;18.976;2023-07-20T00:13:51;99087.47;;;25.58;51.91
65666;BME280;52365;47.464;18.976;2023-07-20T00:14:12;99089.28;;;25.73;51.45
65666;BME280;52365;47.464;18.976;2023-07-20T00:14:33;99086.94;;;25.69;51.55
65666;BME280;52365;47.464;18.976;2023-07-20T00:14:54;99089.97;;;25.36;52.36
65666;BME280;52365;47.464;18.976;2023-07-20T00:15:15;99081.41;;;25.32;52.48
65666;BME280;52365;47.464;18.976;2023-07-20T00:15:37;99077.88;;;25.22;52.94
65666;BME280;52365;47.464;18.976;2023-07-20T00:15:58;99079.50;;;25.25;52.83
65666;BME280;52365;47.464;18.976;2023-07-20T00:16:19;99080.53;;;25.30;52.93
65666;BME280;52365;47.464;18.976;2023-07-20T00:16:40;99084.09;;;25.50;52.36
65666;BME280;52365;47.464;18.976;2023-07-20T00:17:02;99086.34;;;25.61;52.10
65666;BME280;52365;47.464;18.976;2023-07-20T00:17:23;99087.09;;;25.71;51.80
65666;BME280;52365;47.464;18.976;2023-07-20T00:17:44;99082.50;;;25.83;51.41
65666;BME280;52365;47.464;18.976;2023-07-20T00:18:05;99083.59;;;25.71;51.55
65666;BME280;52365;47.464;18.976;2023-07-20T00:18:26;99081.31;;;25.77;51.57
65666;BME280;52365;47.464;18.976;2023-07-20T00:18:47;99075.06;;;25.76;51.40
65666;BME280;52365;47.464;18.976;2023-07-20T00:19:08;99082.28;;;25.72;51.36
65666;BME280;52365;47.464;18.976;2023-07-20T00:19:31;99071.16;;;25.79;51.37
65666;BME280;52365;47.464;18.976;2023-07-20T00:19:53;99075.44;;;26.00;50.76
65666;BME280;52365;47.464;18.976;2023-07-20T00:20:13;99076.16;;;26.00;50.62
65666;BME280;52365;47.464;18.976;2023-07-20T00:20:34;99070.28;;;25.77;51.25
65666;BME280;52365;47.464;18.976;2023-07-20T00:20:55;99061.81;;;25.65;51.87
65666;BME280;52365;47.464;18.976;2023-07-20T00:21:16;99070.31;;;25.50;52.09
65666;BME280;52365;47.464;18.976;2023-07-20T00:21:32;99071.78;;;25.51;52.18
65666;BME280;52365;47.464;18.976;2023-07-20T00:21:54;99070.91;;;25.58;52.01
65666;BME280;52365;47.464;18.976;2023-07-20T00:22:15;99071.16;;;25.43;52.25
65666;BME280;52365;47.464;18.976;2023-07-20T00:22:36;99067.19;;;25.36;52.38
65666;BME280;52365;47.464;18.976;2023-07-20T00:22:58;99073.03;;;25.40;52.28
65666;BME280;52365;47.464;18.976;2023-07-20T00:23:19;99068.66;;;25.10;53.13
65666;BME280;52365;47.464;18.976;2023-07-20T00:23:43;99075.69;;;25.21;52.94
65666;BME280;52365;47.464;18.976;2023-07-20T00:24:04;99071.44;;;25.20;52.96
65666;BME280;52365;47.464;18.976;2023-07-20T00:24:25;99074.22;;;25.20;53.05
65666;BME280;52365;47.464;18.976;2023-07-20T00:24:47;99073.97;;;25.25;52.80
65666;BME280;52365;47.464;18.976;2023-07-20T00:25:08;99078.31;;;25.28;52.62
65666;BME280;52365;47.464;18.976;2023-07-20T00:25:29;99075.38;;;24.99;53.44
65666;BME280;52365;47.464;18.976;2023-07-20T00:25:50;99081.97;;;24.86;54.02
65666;BME280;52365;47.464;18.976;2023-07-20T00:26:11;99077.75;;;24.85;54.14
65666;BME280;52365;47.464;18.976;2023-07-20T00:26:32;99077.31;;;24.89;54.21
65666;BME280;52365;47.464;18.976;2023-07-20T00:26:53;99077.00;;;25.02;53.87
65666;BME280;52365;47.464;18.976;2023-07-20T00:27:14;99074.88;;;25.10;53.67
65666;BME280;52365;47.464;18.976;2023-07-20T00:27:35;99072.88;;;24.94;54.03
65666;BME280;52365;47.464;18.976;2023-07-20T00:27:56;99073.31;;;24.73;54.86
65666;BME280;52365;47.464;18.976;2023-07-20T00:28:17;99071.63;;;24.60;55.34
65666;BME280;52365;47.464;18.976;2023-07-20T00:28:38;99076.88;;;24.66;55.54
65666;BME280;52365;47.464;18.976;2023-07-20T00:28:59;99079.63;;;24.48;56.14
65666;BME280;52365;47.464;18.976;2023-07-20T00:29:20;99087.66;;;24.54;56.15
65666;BME280;52365;47.464;18.976;2023-07-20T00:29:41;99084.69;;;24.34;56.72
65666;BME280;52365;47.464;18.976;2023-07-20T00:30:03;99084.19;;;24.11;57.53
65666;BME280;52365;47.464;18.976;2023-07-20T00:30:24;99085.66;;;24.29;57.23
65666;BME280;52365;47.464;18.976;2023-07-20T00:30:45;99080.31;;;24.31;57.19
65666;BME280;52365;47.464;18.976;2023-07-20T00:31:06;99085.13;;;24.48;56.73
65666;BME280;52365;47.464;18.976;2023-07-20T00:31:27;99095.09;;;24.44;56.87
65666;BME280;52365;47.464;18.976;2023-07-20T00:31:50;99090.00;;;24.40;57.00
65666;BME280;52365;47.464;18.976;2023-07-20T00:32:11;99090.72;;;24.41;57.15
65666;BME280;52365;47.464;18.976;2023-07-20T00:32:32;99099.31;;;24.45;56.85
65666;BME280;52365;47.464;18.976;2023-07-20T00:32:53;99098.66;;;24.54;56.57
65666;BME280;52365;47.464;18.976;2023-07-20T00:33:17;99097.38;;;24.37;57.00
65666;BME280;52365;47.464;18.976;2023-07-20T00:33:38;99102.31;;;24.14;57.77
65666;BME280;52365;47.464;18.976;2023-07-20T00:33:59;99098.50;;;24.09;57.96
65666;BME280;52365;47.464;18.976;2023-07-20T00:34:20;99094.78;;;23.97;58.33
65666;BME280;52365;47.464;18.976;2023-07-20T00:34:41;99100.09;;;23.95;58.54
65666;BME280;52365;47.464;18.976;2023-07-20T00:35:03;99102.47;;;23.99;58.52
65666;BME280;52365;47.464;18.976;2023-07-20T00:35:24;99097.44;;;24.05;58.31
65666;BME280;52365;47.464;18.976;2023-07-20T00:35:45;99097.44;;;24.05;58.30
65666;BME280;52365;47.464;18.976;2023-07-20T00:36:01;99102.41;;;24.06;58.27
65666;BME280;52365;47.464;18.976;2023-07-20T00:36:22;99102.06;;;24.02;58.36
65666;BME280;52365;47.464;18.976;2023-07-20T00:36:43;99099.69;;;23.74;59.21
65666;BME280;52365;47.464;18.976;2023-07-20T00:37:04;99094.44;;;23.68;59.58
65666;BME280;52365;47.464;18.976;2023-07-20T00:37:25;99106.06;;;23.84;59.22
65666;BME280;52365;47.464;18.976;2023-07-20T00:37:46;99096.91;;;23.81;59.16
65666;BME280;52365;47.464;18.976;2023-07-20T00:38:07;99095.16;;;23.94;59.05
65666;BME280;52365;47.464;18.976;2023-07-20T00:38:28;99101.72;;;24.23;58.21
65666;BME280;52365;47.464;18.976;2023-07-20T00:38:49;99100.78;;;24.46;57.41
65666;BME280;52365;47.464;18.976;2023-07-20T00:39:10;99101.19;;;24.59;56.79
65666;BME280;52365;47.464;18.976;2023-07-20T00:39:31;99109.87;;;24.73;56.36
65666;BME280;52365;47.464;18.976;2023-07-20T00:39:53;99098.66;;;24.88;55.91
65666;BME280;52365;47.464;18.976;2023-07-20T00:40:14;99100.28;;;25.09;55.18
65666;BME280;52365;47.464;18.976;2023-07-20T00:40:41;99107.47;;;25.04;55.02
65666;BME280;52365;47.464;18.976;2023-07-20T00:41:02;99106.19;;;24.71;56.13
65666;BME280;52365;47.464;18.976;2023-07-20T00:41:23;99107.69;;;24.29;57.33
65666;BME280;52365;47.464;18.976;2023-07-20T00:41:44;99102.31;;;24.14;58.03
65666;BME280;52365;47.464;18.976;2023-07-20T00:42:05;99107.19;;;24.06;58.31
65666;BME280;52365;47.464;18.976;2023-07-20T00:42:26;99100.53;;;24.09;58.33
65666;BME280;52365;47.464;18.976;2023-07-20T00:42:47;99111.53;;;24.09;58.41
65666;BME280;52365;47.464;18.976;2023-07-20T00:43:08;99100.56;;;24.26;57.90
65666;BME280;52365;47.464;18.976;2023-07-20T00:43:29;99100.56;;;24.26;57.80
65666;BME280;52365;47.464;18.976;2023-07-20T00:43:50;99090.69;;;24.23;57.92
65666;BME280;52365;47.464;18.976;2023-07-20T00:44:11;99096.47;;;24.10;58.27
65666;BME280;52365;47.464;18.976;2023-07-20T00:44:33;99089.59;;;24.19;58.13
65666;BME280;52365;47.464;18.976;2023-07-20T00:44:54;99087.81;;;24.13;58.25
65666;BME280;52365;47.464;18.976;2023-07-20T00:45:14;99092.50;;;24.03;58.47
65666;BME280;52365;47.464;18.976;2023-07-20T00:45:36;99089.53;;;24.09;58.36
65666;BME280;52365;47.464;18.976;2023-07-20T00:45:57;99093.56;;;24.08;58.34
65666;BME280;52365;47.464;18.976;2023-07-20T00:46:20;99085.16;;;24.06;58.39
65666;BME280;52365;47.464;18.976;2023-07-20T00:46:43;99082.06;;;24.02;58.56
65666;BME280;52365;47.464;18.976;2023-07-20T00:47:05;99086.69;;;24.17;58.19
65666;BME280;52365;47.464;18.976;2023-07-20T00:47:27;99079.50;;;24.21;57.97
65666;BME280;52365;47.464;18.976;2023-07-20T00:47:48;99082.25;;;24.21;58.00
65666;BME280;52365;47.464;18.976;2023-07-20T00:48:09;99082.09;;;24.19;58.02
65666;BME280;52365;47.464;18.976;2023-07-20T00:48:31;99084.81;;;24.02;58.34
65666;BME280;52365;47.464;18.976;2023-07-20T00:48:53;99084.09;;;24.01;58.43
65666;BME280;52365;47.464;18.976;2023-07-20T00:49:16;99077.72;;;24.16;58.11
65666;BME280;52365;47.464;18.976;2023-07-20T00:49:37;99080.47;;;24.41;57.38
65666;BME280;52365;47.464;18.976;2023-07-20T00:49:59;99072.59;;;24.55;56.85
65666;BME280;52365;47.464;18.976;2023-07-20T00:50:20;99078.00;;;24.62;56.58
65666;BME280;52365;47.464;18.976;2023-07-20T00:50:41;99082.62;;;24.60;56.52
65666;BME280;52365;47.464;18.976;2023-07-20T00:51:03;99079.37;;;24.54;56.71
65666;BME280;52365;47.464;18.976;2023-07-20T00:51:25;99085.87;;;24.66;56.51
65666;BME280;52365;47.464;18.976;2023-07-20T00:51:48;99075.47;;;24.92;55.73
65666;BME280;52365;47.464;18.976;2023-07-20T00:52:10;99076.78;;;25.08;55.15
65666;BME280;52365;47.464;18.976;2023-07-20T00:52:34;99075.09;;;25.22;54.69
65666;BME280;52365;47.464;18.976;2023-07-20T00:52:56;99072.31;;;25.12;54.70
65666;BME280;52365;47.464;18.976;2023-07-20T00:53:17;99083.28;;;24.85;55.40
65666;BME280;52365;47.464;18.976;2023-07-20T00:53:39;99073.88;;;24.71;55.87
65666;BME280;52365;47.464;18.976;2023-07-20T00:54:00;99073.06;;;24.78;55.86
65666;BME280;52365;47.464;18.976;2023-07-20T00:54:21;99078.16;;;24.82;55.73
65666;BME280;52365;47.464;18.976;2023-07-20T00:54:43;99083.50;;;24.80;55.79
65666;BME280;52365;47.464;18.976;2023-07-20T00:55:05;99077.44;;;24.81;55.77
65666;BME280;52365;47.464;18.976;2023-07-20T00:55:28;99074.91;;;24.76;55.90
65666;BME280;52365;47.464;18.976;2023-07-20T00:55:49;99072.72;;;24.74;56.04
65666;BME280;52365;47.464;18.976;2023-07-20T00:56:10;99078.56;;;24.78;55.98
65666;BME280;52365;47.464;18.976;2023-07-20T00:56:32;99079.63;;;24.66;56.52
65666;BME280;52365;47.464;18.976;2023-07-20T00:56:54;99069.25;;;24.56;56.79
65666;BME280;52365;47.464;18.976;2023-07-20T00:57:15;99077.78;;;24.51;57.05
65666;BME280;52365;47.464;18.976;2023-07-20T00:57:36;99072.00;;;24.39;57.50
65666;BME280;52365;47.464;18.976;2023-07-20T00:57:58;99073.41;;;24.48;57.32
65666;BME280;52365;47.464;18.976;2023-07-20T00:58:20;99071.09;;;24.36;57.54
65666;BME280;52365;47.464;18.976;2023-07-20T00:58:41;99075.50;;;24.40;57.54
65666;BME280;52365;47.464;18.976;2023-07-20T00:59:02;99070.06;;;24.49;57.12
65666;BME280;52365;47.464;18.976;2023-07-20T00:59:23;99070.50;;;24.46;57.00
65666;BME280;52365;47.464;18.976;2023-07-20T00:59:44;99070.50;;;24.46;56.95
65666;BME280;52365;47.464;18.976;2023-07-20T01:00:06;99075.03;;;24.08;57.64
65666;BME280;52365;47.464;18.976;2023-07-20T01:00:27;99068.50;;;24.21;57.59
65666;BME280;52365;47.464;18.976;2023-07-20T01:00:48;99076.59;;;24.19;57.69
65666;BME280;52365;47.464;18.976;2023-07-20T01:01:09;99071.28;;;24.39;57.15
65666;BME280;52365;47.464;18.976;2023-07-20T01:01:30;99064.78;;;24.26;57.42
65666;BME280;52365;47.464;18.976;2023-07-20T01:01:51;99061.66;;;24.47;57.01
65666;BME280;52365;47.464;18.976;2023-07-20T01:02:12;99062.63;;;24.42;56.94
65666;BME280;52365;47.464;18.976;2023-07-20T01:02:33;99062.09;;;24.36;56.97
65666;BME280;52365;47.464;18.976;2023-07-20T01:02:54;99059.41;;;24.11;57.68
65666;BME280;52365;47.464;18.976;2023-07-20T01:03:15;99058.81;;;23.95;58.18
65666;BME280;52365;47.464;18.976;2023-07-20T01:03:37;99059.28;;;23.84;58.62
65666;BME280;52365;47.464;18.976;2023-07-20T01:03:58;99057.56;;;23.63;59.24
65666;BME280;52365;47.464;18.976;2023-07-20T01:04:19;99066.34;;;23.70;59.30
65666;BME280;52365;47.464;18.976;2023-07-20T01:04:41;99060.78;;;23.77;59.08
65666;BME280;52365;47.464;18.976;2023-07-20T01:05:02;99063.31;;;23.83;58.92
65666;BME280;52365;47.464;18.976;2023-07-20T01:05:42;99061.81;;;23.57;59.51
65666;BME280;52365;47.464;18.976;2023-07-20T01:06:14;99058.16;;;23.87;58.82
65666;BME280;52365;47.464;18.976;2023-07-20T01:06:52;99063.25;;;23.91;58.67
65666;BME280;52365;47.464;18.976;2023-07-20T01:07:31;99051.78;;;23.52;59.81
65666;BME280;52365;47.464;18.976;2023-07-20T01:08:03;99056.28;;;23.90;59.04
65666;BME280;52365;47.464;18.976;2023-07-20T01:08:52;99057.66;;;24.23;57.65
65666;BME280;52365;47.464;18.976;2023-07-20T01:09:22;99054.72;;;24.21;57.39
65666;BME280;52365;47.464;18.976;2023-07-20T01:09:53;99055.75;;;24.51;56.82
65666;BME280;52365;47.464;18.976;2023-07-20T01:10:31;99056.69;;;24.28;57.25
65666;BME280;52365;47.464;18.976;2023-07-20T01:10:58;99054.97;;;24.33;57.27
65666;BME280;52365;47.464;18.976;2023-07-20T01:11:31;99053.78;;;24.61;56.46
65666;BME280;52365;47.464;18.976;2023-07-20T01:12:04;99052.25;;;24.68;56.12
65666;BME280;52365;47.464;18.976;2023-07-20T01:12:38;99051.19;;;24.80;55.71
65666;BME280;52365;47.464;18.976;2023-07-20T01:13:01;99051.81;;;24.71;55.87
65666;BME280;52365;47.464;18.976;2023-07-20T01:13:22;99049.91;;;24.64;56.18
65666;BME280;52365;47.464;18.976;2023-07-20T01:13:44;99040.03;;;24.44;56.65
65666;BME280;52365;47.464;18.976;2023-07-20T01:14:06;99050.16;;;24.58;56.51
65666;BME280;52365;47.464;18.976;2023-07-20T01:14:27;99044.06;;;24.60;56.23
65666;BME280;52365;47.464;18.976;2023-07-20T01:14:44;99040.41;;;24.57;56.34
65666;BME280;52365;47.464;18.976;2023-07-20T01:15:06;99046.19;;;24.52;56.48
65666;BME280;52365;47.464;18.976;2023-07-20T01:15:28;99049.91;;;24.47;56.77
65666;BME280;52365;47.464;18.976;2023-07-20T01:15:50;99040.75;;;24.44;56.79
65666;BME280;52365;47.464;18.976;2023-07-20T01:16:12;99041.56;;;24.37;56.86
65666;BME280;52365;47.464;18.976;2023-07-20T01:16:33;99040.72;;;24.27;57.33
65666;BME280;52365;47.464;18.976;2023-07-20T01:16:55;99041.56;;;24.54;56.69
65666;BME280;52365;47.464;18.976;2023-07-20T01:17:16;99038.22;;;24.73;56.03
65666;BME280;52365;47.464;18.976;2023-07-20T01:17:37;99038.19;;;24.91;55.45
65666;BME280;52365;47.464;18.976;2023-07-20T01:17:57;99040.31;;;24.82;55.40
65666;BME280;52365;47.464;18.976;2023-07-20T01:18:21;99040.00;;;24.78;55.56
65666;BME280;52365;47.464;18.976;2023-07-20T01:18:42;99038.34;;;24.93;55.26
65666;BME280;52365;47.464;18.976;2023-07-20T01:19:03;99039.59;;;24.82;55.53
65666;BME280;52365;47.464;18.976;2023-07-20T01:19:25;99040.91;;;24.64;55.93
65666;BME280;52365;47.464;18.976;2023-07-20T01:19:46;99046.63;;;24.75;55.70
65666;BME280;52365;47.464;18.976;2023-07-20T01:20:09;99040.97;;;24.73;55.76
65666;BME280;52365;47.464;18.976;2023-07-20T01:20:33;99041.84;;;24.76;55.77
65666;BME280;52365;47.464;18.976;2023-07-20T01:20:51;99034.38;;;24.86;55.50
65666;BME280;52365;47.464;18.976;2023-07-20T01:21:21;99041.81;;;24.93;55.31
65666;BME280;52365;47.464;18.976;2023-07-20T01:21:57;99040.94;;;24.91;55.34
65666;BME280;52365;47.464;18.976;2023-07-20T01:29:11;99024.50;;;24.83;55.65
65666;BME280;52365;47.464;18.976;2023-07-20T01:30:56;99033.13;;;25.14;54.58
65666;BME280;52365;47.464;18.976;2023-07-20T01:31:24;99034.75;;;25.17;54.44
65666;BME280;52365;47.464;18.976;2023-07-20T01:31:46;99027.22;;;25.00;55.04
65666;BME280;52365;47.464;18.976;2023-07-20T01:32:09;99031.09;;;24.97;55.16
65666;BME280;52365;47.464;18.976;2023-07-20T01:32:31;99037.94;;;24.96;55.21
65666;BME280;52365;47.464;18.976;2023-07-20T01:32:54;99035.25;;;24.88;55.54
65666;BME280;52365;47.464;18.976;2023-07-20T01:33:18;99036.25;;;24.83;55.70
65666;BME280;52365;47.464;18.976;2023-07-20T01:33:41;99030.72;;;24.83;55.72
65666;BME280;52365;47.464;18.976;2023-07-20T01:34:03;99038.59;;;24.87;55.61
65666;BME280;52365;47.464;18.976;2023-07-20T01:34:26;99032.81;;;24.93;55.46
65666;BME280;52365;47.464;18.976;2023-07-20T01:34:49;99040.22;;;24.90;55.50
65666;BME280;52365;47.464;18.976;2023-07-20T01:35:14;99038.00;;;24.88;55.49
65666;BME280;52365;47.464;18.976;2023-07-20T01:35:37;99035.13;;;24.86;55.76
65666;BME280;52365;47.464;18.976;2023-07-20T01:36:00;99035.44;;;24.91;55.62
65666;BME280;52365;47.464;18.976;2023-07-20T01:36:24;99043.28;;;24.94;55.58
65666;BME280;52365;47.464;18.976;2023-07-20T01:36:46;99041.56;;;24.99;55.40
65666;BME280;52365;47.464;18.976;2023-07-20T01:37:08;99039.53;;;24.99;55.42
65666;BME280;52365;47.464;18.976;2023-07-20T01:37:32;99042.00;;;24.95;55.57
65666;BME280;52365;47.464;18.976;2023-07-20T01:37:53;99047.00;;;24.89;55.71
65666;BME280;52365;47.464;18.976;2023-07-20T01:38:15;99047.19;;;24.91;55.72
65666;BME280;52365;47.464;18.976;2023-07-20T01:38:37;99047.09;;;24.99;55.53
65666;BME280;52365;47.464;18.976;2023-07-20T01:38:58;99039.78;;;25.11;55.11
65666;BME280;52365;47.464;18.976;2023-07-20T01:39:20;99040.66;;;25.14;54.99
65666;BME280;52365;47.464;18.976;2023-07-20T01:39:42;99044.78;;;25.05;55.14
65666;BME280;52365;47.464;18.976;2023-07-20T01:40:04;99050.16;;;25.03;55.29
65666;BME280;52365;47.464;18.976;2023-07-20T01:40:25;99040.00;;;25.05;55.25
65666;BME280;52365;47.464;18.976;2023-07-20T01:40:48;99044.16;;;24.97;55.58
65666;BME280;52365;47.464;18.976;2023-07-20T01:41:10;99041.81;;;24.93;55.67
65666;BME280;52365;47.464;18.976;2023-07-20T01:41:32;99046.09;;;25.04;55.49
65666;BME280;52365;47.464;18.976;2023-07-20T01:41:54;99047.91;;;25.09;55.29
65666;BME280;52365;47.464;18.976;2023-07-20T01:42:16;99042.53;;;25.11;55.16
65666;BME280;52365;47.464;18.976;2023-07-20T01:42:37;99043.34;;;25.04;55.34
65666;BME280;52365;47.464;18.976;2023-07-20T01:42:58;99042.72;;;24.96;55.60
65666;BME280;52365;47.464;18.976;2023-07-20T01:43:19;99040.97;;;24.73;56.24
65666;BME280;52365;47.464;18.976;2023-07-20T01:43:40;99041.47;;;24.45;57.09
65666;BME280;52365;47.464;18.976;2023-07-20T01:44:03;99038.63;;;24.35;57.56
65666;BME280;52365;47.464;18.976;2023-07-20T01:44:24;99041.16;;;24.41;57.45
65666;BME280;52365;47.464;18.976;2023-07-20T01:44:45;99046.09;;;24.59;57.00
65666;BME280;52365;47.464;18.976;2023-07-20T01:45:07;99041.56;;;24.72;56.54
65666;BME280;52365;47.464;18.976;2023-07-20T01:45:28;99048.19;;;24.69;56.62
65666;BME280;52365;47.464;18.976;2023-07-20T01:45:49;99043.81;;;24.66;56.77
65666;BME280;52365;47.464;18.976;2023-07-20T01:46:10;99050.72;;;24.57;56.88
65666;BME280;52365;47.464;18.976;2023-07-20T01:46:31;99052.09;;;24.48;57.17
65666;BME280;52365;47.464;18.976;2023-07-20T01:46:52;99049.72;;;24.45;57.43
65666;BME280;52365;47.464;18.976;2023-07-20T01:47:13;99052.25;;;24.50;57.26
65666;BME280;52365;47.464;18.976;2023-07-20T01:47:34;99053.22;;;24.62;56.91
65666;BME280;52365;47.464;18.976;2023-07-20T01:47:55;99053.84;;;24.71;56.77
65666;BME280;52365;47.464;18.976;2023-07-20T01:48:16;99057.00;;;24.67;56.87
65666;BME280;52365;47.464;18.976;2023-07-20T01:48:37;99059.94;;;24.69;56.83
65666;BME280;52365;47.464;18.976;2023-07-20T01:48:58;99057.97;;;24.79;56.55
65666;BME280;52365;47.464;18.976;2023-07-20T01:49:19;99060.91;;;24.81;56.44
65666;BME280;52365;47.464;18.976;2023-07-20T01:49:40;99064.97;;;24.80;56.50
65666;BME280;52365;47.464;18.976;2023-07-20T01:50:01;99066.97;;;24.80;56.56
65666;BME280;52365;47.464;18.976;2023-07-20T01:50:22;99069.00;;;24.79;56.61
65666;BME280;52365;47.464;18.976;2023-07-20T01:50:43;99068.12;;;24.77;56.72
65666;BME280;52365;47.464;18.976;2023-07-20T01:51:04;99064.00;;;24.68;56.72
65666;BME280;52365;47.464;18.976;2023-07-20T01:51:25;99066.59;;;24.49;57.03
65666;BME280;52365;47.464;18.976;2023-07-20T01:51:46;99070.81;;;24.50;57.06
65666;BME280;52365;47.464;18.976;2023-07-20T01:52:07;99070.22;;;24.34;57.61
65666;BME280;52365;47.464;18.976;2023-07-20T01:52:28;99071.09;;;24.36;57.62
65666;BME280;52365;47.464;18.976;2023-07-20T01:52:50;99067.28;;;24.32;57.59
65666;BME280;52365;47.464;18.976;2023-07-20T01:53:11;99066.41;;;24.29;57.66
65666;BME280;52365;47.464;18.976;2023-07-20T01:53:32;99068.16;;;24.17;58.04
65666;BME280;52365;47.464;18.976;2023-07-20T01:53:53;99069.94;;;24.22;58.12
65666;BME280;52365;47.464;18.976;2023-07-20T01:54:14;99070.75;;;24.15;58.17
65666;BME280;52365;47.464;18.976;2023-07-20T01:54:35;99076.25;;;24.15;58.30
65666;BME280;52365;47.464;18.976;2023-07-20T01:54:56;99078.69;;;24.11;58.36
65666;BME280;52365;47.464;18.976;2023-07-20T01:55:17;99076.56;;;24.02;58.68
65666;BME280;52365;47.464;18.976;2023-07-20T01:55:38;99068.75;;;23.91;59.02
65666;BME280;52365;47.464;18.976;2023-07-20T01:55:59;99081.22;;;23.92;59.11
65666;BME280;52365;47.464;18.976;2023-07-20T01:56:20;99075.00;;;23.91;59.09
65666;BME280;52365;47.464;18.976;2023-07-20T01:56:41;99080.88;;;23.87;59.29
65666;BME280;52365;47.464;18.976;2023-07-20T01:57:03;99084.66;;;24.00;59.11
65666;BME280;52365;47.464;18.976;2023-07-20T01:57:24;99085.94;;;23.99;58.99
65666;BME280;52365;47.464;18.976;2023-07-20T01:57:45;99080.09;;;23.95;59.16
65666;BME280;52365;47.464;18.976;2023-07-20T01:58:06;99085.94;;;23.99;59.22
65666;BME280;52365;47.464;18.976;2023-07-20T01:58:28;99079.37;;;23.94;59.27
65666;BME280;52365;47.464;18.976;2023-07-20T01:58:49;99081.84;;;24.07;59.02
65666;BME280;52365;47.464;18.976;2023-07-20T01:59:10;99087.34;;;24.07;58.84
65666;BME280;52365;47.464;18.976;2023-07-20T01:59:31;99075.00;;;23.91;59.23
65666;BME280;52365;47.464;18.976;2023-07-20T01:59:52;99081.56;;;23.96;59.20
65666;BME280;52365;47.464;18.976;2023-07-20T02:00:13;99086.91;;;23.94;59.24
65666;BME280;52365;47.464;18.976;2023-07-20T02:00:36;99085.28;;;23.91;59.25
65666;BME280;52365;47.464;18.976;2023-07-20T02:00:58;99079.66;;;23.81;59.57
65666;BME280;52365;47.464;18.976;2023-07-20T02:01:18;99082.31;;;23.71;60.01
65666;BME280;52365;47.464;18.976;2023-07-20T02:01:40;99084.09;;;23.76;60.10
65666;BME280;52365;47.464;18.976;2023-07-20T02:02:01;99081.91;;;23.75;59.89
65666;BME280;52365;47.464;18.976;2023-07-20T02:02:26;99079.56;;;23.71;60.13
65666;BME280;52365;47.464;18.976;2023-07-20T02:02:47;99083.16;;;23.81;60.06
65666;BME280;52365;47.464;18.976;2023-07-20T02:03:08;99084.88;;;23.94;59.62
65666;BME280;52365;47.464;18.976;2023-07-20T02:03:29;99085.59;;;23.95;59.48
65666;BME280;52365;47.464;18.976;2023-07-20T02:03:50;99086.56;;;23.90;59.61